createdAt,value
2024-02-11T00:02:10.928Z,11.68
2024-02-11T00:04:38.877Z,12.20
2024-02-11T00:07:08.040Z,11.02
2024-02-11T00:09:35.510Z,11.63
2024-02-11T00:12:03.568Z,11.32
2024-02-11T00:14:31.105Z,11.55
2024-02-11T00:17:01.548Z,10.00
2024-02-11T00:19:31.335Z,10.05
2024-02-11T00:21:58.899Z,10.43
2024-02-11T00:24:31.310Z,10.25
2024-02-11T00:26:59.259Z,9.73
2024-02-11T00:29:27.908Z,9.32
2024-02-11T00:31:57.564Z,9.27
2024-02-11T00:34:25.702Z,9.75
2024-02-11T00:36:53.393Z,9.25
2024-02-11T00:39:21.286Z,10.90
2024-02-11T00:41:49.008Z,10.27
2024-02-11T00:44:16.604Z,8.88
2024-02-11T00:46:44.219Z,9.18
2024-02-11T00:49:12.293Z,10.00
2024-02-11T00:51:39.698Z,10.93
2024-02-11T00:54:07.244Z,11.15
2024-02-11T00:56:34.992Z,8.18
2024-02-11T00:59:02.449Z,9.30
2024-02-11T01:01:29.993Z,9.27
2024-02-11T01:03:58.027Z,8.55
2024-02-11T01:06:25.607Z,10.68
2024-02-11T01:08:53.546Z,8.30
2024-02-11T01:11:21.414Z,8.93
2024-02-11T01:13:49.865Z,8.82
2024-02-11T01:16:17.382Z,8.27
2024-02-11T01:18:47.423Z,7.97
2024-02-11T01:21:14.987Z,8.95
2024-02-11T01:23:42.509Z,9.13
2024-02-11T01:26:10.265Z,8.13
2024-02-11T01:28:40.821Z,7.47
2024-02-11T01:31:09.028Z,7.45
2024-02-11T01:33:36.780Z,8.05
2024-02-11T01:36:04.536Z,6.50
2024-02-11T01:38:32.460Z,6.32
2024-02-11T01:41:00.288Z,7.55
2024-02-11T01:43:27.751Z,6.18
2024-02-11T01:45:55.168Z,7.03
2024-02-11T01:48:22.981Z,6.10
2024-02-11T01:50:53.777Z,6.28
2024-02-11T01:53:21.674Z,6.20
2024-02-11T01:55:49.504Z,6.65
2024-02-11T01:58:17.237Z,6.12
2024-02-11T02:00:44.786Z,6.45
2024-02-11T02:03:13.579Z,6.95
2024-02-11T02:05:41.109Z,6.10
2024-02-11T02:08:10.382Z,5.30
2024-02-11T02:10:38.283Z,5.60
2024-02-11T02:13:05.707Z,5.30
2024-02-11T02:15:33.095Z,4.25
2024-02-11T02:18:00.870Z,5.90
2024-02-11T02:20:28.490Z,5.60
2024-02-11T02:22:56.055Z,4.75
2024-02-11T02:25:23.807Z,6.05
2024-02-11T02:27:51.226Z,5.25
2024-02-11T02:30:18.646Z,4.70
2024-02-11T02:32:46.340Z,6.45
2024-02-11T02:35:23.233Z,4.75
2024-02-11T02:37:55.025Z,5.22
2024-02-11T02:40:27.631Z,6.12
2024-02-11T02:42:58.701Z,4.15
2024-02-11T02:45:26.532Z,5.30
2024-02-11T02:47:55.399Z,4.20
2024-02-11T02:50:23.417Z,4.35
2024-02-11T02:52:51.066Z,4.75
2024-02-11T02:55:19.410Z,4.10
2024-02-11T02:57:47.281Z,4.45
2024-02-11T03:00:17.705Z,5.35
2024-02-11T03:02:45.624Z,4.95
2024-02-11T03:05:13.544Z,4.95
2024-02-11T03:07:41.717Z,4.75
2024-02-11T03:10:09.441Z,4.30
2024-02-11T03:12:37.283Z,4.57
2024-02-11T03:15:08.269Z,5.40
2024-02-11T03:17:35.876Z,5.20
2024-02-11T03:20:07.519Z,4.90
2024-02-11T03:22:35.032Z,4.60
2024-02-11T03:25:02.514Z,5.07
2024-02-11T03:27:30.233Z,4.75
2024-02-11T03:29:57.625Z,4.72
2024-02-11T03:32:25.048Z,4.70
2024-02-11T03:34:52.779Z,5.15
2024-02-11T03:37:20.209Z,5.00
2024-02-11T03:39:50.445Z,5.03
2024-02-11T03:42:20.915Z,4.82
2024-02-11T03:44:48.391Z,4.95
2024-02-11T03:47:15.799Z,7.37
2024-02-11T03:49:43.746Z,4.72
2024-02-11T03:52:12.318Z,6.18
2024-02-11T03:54:39.816Z,4.90
2024-02-11T03:57:07.919Z,4.80
2024-02-11T03:59:35.318Z,4.57
2024-02-11T04:02:04.769Z,4.90
2024-02-11T04:04:32.668Z,4.62
2024-02-11T04:07:00.503Z,5.15
2024-02-11T04:09:30.231Z,4.45
2024-02-11T04:12:02.182Z,4.25
2024-02-11T04:14:29.615Z,5.30
2024-02-11T04:16:57.204Z,5.28
2024-02-11T04:19:26.550Z,5.32
2024-02-11T04:21:53.962Z,5.85
2024-02-11T04:24:22.634Z,5.20
2024-02-11T04:26:54.850Z,7.07
2024-02-11T04:29:22.784Z,5.28
2024-02-11T04:31:52.379Z,5.43
2024-02-11T04:34:23.347Z,5.53
2024-02-11T04:36:51.235Z,5.57
2024-02-11T04:39:20.261Z,4.82
2024-02-11T04:41:47.822Z,5.10
2024-02-11T04:44:16.714Z,5.60
2024-02-11T04:46:44.289Z,5.18
2024-02-11T04:49:11.909Z,5.07
2024-02-11T04:51:40.581Z,4.78
2024-02-11T04:54:08.444Z,5.40
2024-02-11T04:56:36.420Z,6.00
2024-02-11T04:59:05.397Z,5.85
2024-02-11T05:01:33.037Z,5.05
2024-02-11T05:04:02.635Z,5.72
2024-02-11T05:06:32.105Z,5.87
2024-02-11T05:09:02.036Z,6.00
2024-02-11T05:11:30.147Z,5.72
2024-02-11T05:13:59.410Z,6.10
2024-02-11T05:16:29.464Z,5.75
2024-02-11T05:18:57.554Z,5.10
2024-02-11T05:21:25.456Z,5.40
2024-02-11T05:23:52.922Z,5.57
2024-02-11T05:26:22.861Z,6.35
2024-02-11T05:28:50.953Z,6.65
2024-02-11T05:31:24.190Z,7.53
2024-02-11T05:33:52.527Z,6.25
2024-02-11T05:36:20.191Z,6.28
2024-02-11T05:38:48.734Z,6.10
2024-02-11T05:41:16.569Z,5.87
2024-02-11T05:43:44.146Z,6.72
2024-02-11T05:46:11.867Z,6.80
2024-02-11T05:48:39.688Z,6.72
2024-02-11T05:51:07.302Z,7.43
2024-02-11T05:53:35.127Z,7.32
2024-02-11T05:56:05.676Z,8.20
2024-02-11T05:58:33.443Z,7.50
2024-02-11T06:01:00.946Z,7.80
2024-02-11T06:03:28.673Z,7.12
2024-02-11T06:05:56.106Z,6.37
2024-02-11T06:08:23.847Z,7.15
2024-02-11T06:10:52.582Z,6.85
2024-02-11T06:13:20.583Z,7.93
2024-02-11T06:15:49.318Z,8.30
2024-02-11T06:18:19.192Z,8.38
2024-02-11T06:20:47.053Z,7.10
2024-02-11T06:23:14.833Z,8.02
2024-02-11T06:25:43.989Z,7.40
2024-02-11T06:28:11.578Z,8.13
2024-02-11T06:30:39.221Z,7.93
2024-02-11T06:33:11.594Z,9.05
2024-02-11T06:35:41.484Z,8.15
2024-02-11T06:38:09.385Z,8.45
2024-02-11T06:40:37.063Z,10.02
2024-02-11T06:43:12.255Z,8.48
2024-02-11T06:45:47.575Z,8.13
2024-02-11T06:48:15.482Z,8.18
2024-02-11T06:50:43.324Z,7.93
2024-02-11T06:53:10.824Z,7.55
2024-02-11T06:55:38.264Z,7.35
2024-02-11T06:58:08.702Z,6.95
2024-02-11T07:00:38.572Z,7.22
2024-02-11T07:03:06.336Z,7.68
2024-02-11T07:05:34.105Z,7.37
2024-02-11T07:08:01.761Z,6.50
2024-02-11T07:10:30.763Z,6.70
2024-02-11T07:12:58.793Z,7.10
2024-02-11T07:15:26.486Z,7.18
2024-02-11T07:17:55.026Z,6.85
2024-02-11T07:20:23.890Z,7.03
2024-02-11T07:22:51.524Z,6.80
2024-02-11T07:25:19.724Z,6.95
2024-02-11T07:27:47.406Z,6.75
2024-02-11T07:30:15.413Z,6.50
2024-02-11T07:32:44.337Z,7.70
2024-02-11T07:35:14.375Z,8.38
2024-02-11T07:37:42.989Z,8.15
2024-02-11T07:40:13.226Z,7.70
2024-02-11T07:42:42.034Z,6.97
2024-02-11T07:45:16.388Z,6.85
2024-02-11T07:47:48.675Z,7.28
2024-02-11T07:50:17.117Z,7.70
2024-02-11T07:52:45.672Z,6.60
2024-02-11T07:55:13.621Z,7.95
2024-02-11T07:57:42.048Z,6.82
2024-02-11T08:00:09.801Z,7.55
2024-02-11T08:02:37.592Z,7.18
2024-02-11T08:05:05.376Z,7.43
2024-02-11T08:07:32.791Z,7.90
2024-02-11T08:10:00.494Z,7.97
2024-02-11T08:12:28.604Z,7.22
2024-02-11T08:14:56.209Z,7.60
2024-02-11T08:17:24.035Z,7.60
2024-02-11T08:19:51.606Z,7.87
2024-02-11T08:22:19.860Z,8.65
2024-02-11T08:24:47.514Z,8.40
2024-02-11T08:27:14.985Z,8.23
2024-02-11T08:29:47.454Z,8.07
2024-02-11T08:32:15.280Z,9.55
2024-02-11T08:34:42.991Z,11.18
2024-02-11T08:37:10.440Z,9.93
2024-02-11T08:39:38.101Z,9.23
2024-02-11T08:42:07.020Z,10.02
2024-02-11T08:44:34.458Z,9.55
2024-02-11T08:47:03.576Z,9.43
2024-02-11T08:49:31.017Z,10.25
2024-02-11T08:51:59.997Z,7.57
2024-02-11T08:54:27.660Z,8.85
2024-02-11T08:56:55.532Z,8.00
2024-02-11T08:59:23.262Z,8.52
2024-02-11T09:01:54.447Z,9.70
2024-02-11T09:04:23.111Z,11.98
2024-02-11T09:07:00.411Z,15.25
2024-02-11T09:09:27.972Z,10.55
2024-02-11T09:11:59.153Z,10.88
2024-02-11T09:14:27.630Z,11.85
2024-02-11T09:16:55.560Z,9.82
2024-02-11T09:19:24.665Z,8.15
2024-02-11T09:21:52.132Z,8.63
2024-02-11T09:24:19.816Z,9.30
2024-02-11T09:26:48.388Z,10.10
2024-02-11T09:29:15.945Z,8.77
2024-02-11T09:31:43.394Z,8.02
2024-02-11T09:34:11.836Z,7.05
2024-02-11T09:36:39.886Z,8.18
2024-02-11T09:39:07.366Z,8.00
2024-02-11T09:41:35.385Z,8.00
2024-02-11T09:44:03.717Z,8.38
2024-02-11T09:46:36.245Z,7.57
2024-02-11T09:49:16.215Z,6.40
2024-02-11T09:51:43.717Z,7.37
2024-02-11T09:54:11.364Z,6.45
2024-02-11T09:56:38.834Z,9.63
2024-02-11T09:59:06.421Z,6.97
2024-02-11T10:01:34.626Z,8.27
2024-02-11T10:04:04.349Z,7.45
2024-02-11T10:06:35.901Z,7.37
2024-02-11T10:09:06.926Z,7.50
2024-02-11T10:11:38.236Z,6.70
2024-02-11T10:14:11.214Z,6.75
2024-02-11T10:16:39.738Z,6.65
2024-02-11T10:19:07.837Z,7.03
2024-02-11T10:21:35.308Z,6.47
2024-02-11T10:24:05.832Z,6.78
2024-02-11T10:26:33.612Z,7.10
2024-02-11T10:29:01.235Z,7.72
2024-02-11T10:31:30.754Z,6.62
2024-02-11T10:33:58.992Z,7.32
2024-02-11T10:36:27.399Z,7.10
2024-02-11T10:38:58.122Z,7.87
2024-02-11T10:41:25.824Z,7.78
2024-02-11T10:43:53.551Z,7.18
2024-02-11T10:46:21.737Z,8.10
2024-02-11T10:48:50.019Z,7.18
2024-02-11T10:51:24.512Z,6.87
2024-02-11T10:54:02.791Z,6.78
2024-02-11T10:56:30.270Z,6.20
2024-02-11T10:59:02.449Z,5.97
2024-02-11T11:01:29.905Z,7.20
2024-02-11T11:03:57.953Z,6.80
2024-02-11T11:06:25.748Z,7.20
2024-02-11T11:08:54.144Z,6.53
2024-02-11T11:11:26.351Z,7.10
2024-02-11T11:13:55.779Z,6.90
2024-02-11T11:16:28.506Z,8.32
2024-02-11T11:18:56.802Z,7.60
2024-02-11T11:21:24.565Z,6.90
2024-02-11T11:23:52.020Z,7.00
2024-02-11T11:26:21.439Z,7.65
2024-02-11T11:28:50.526Z,8.07
2024-02-11T11:31:18.310Z,8.25
2024-02-11T11:33:45.860Z,9.35
2024-02-11T11:36:23.740Z,8.23
2024-02-11T11:38:52.544Z,9.57
2024-02-11T11:41:20.535Z,7.93
2024-02-11T11:43:48.255Z,7.62
2024-02-11T11:46:15.859Z,7.35
2024-02-11T11:48:43.774Z,7.97
2024-02-11T11:51:12.570Z,7.60
2024-02-11T11:53:40.199Z,9.05
2024-02-11T11:56:08.352Z,7.40
2024-02-11T11:58:35.924Z,8.98
2024-02-11T12:01:05.659Z,8.98
2024-02-11T12:03:34.849Z,8.38
2024-02-11T12:06:02.665Z,10.00
2024-02-11T12:08:30.408Z,8.95
2024-02-11T12:11:05.099Z,9.38
2024-02-11T12:13:34.129Z,8.45
2024-02-11T12:16:03.743Z,9.18
2024-02-11T12:18:31.944Z,10.48
2024-02-11T12:20:59.451Z,8.85
2024-02-11T12:23:27.358Z,8.40
2024-02-11T12:25:55.611Z,8.45
2024-02-11T12:28:30.764Z,7.60
2024-02-11T12:31:14.376Z,8.52
2024-02-11T12:33:49.694Z,7.65
2024-02-11T12:36:24.008Z,8.00
2024-02-11T12:38:52.965Z,7.82
2024-02-11T12:41:22.325Z,6.90
2024-02-11T12:43:51.096Z,7.25
2024-02-11T12:46:18.634Z,6.47
2024-02-11T12:48:46.823Z,7.37
2024-02-11T12:51:15.827Z,7.37
2024-02-11T12:53:43.482Z,7.32
2024-02-11T12:56:12.512Z,6.72
2024-02-11T12:58:44.120Z,6.03
2024-02-11T13:01:12.551Z,5.43
2024-02-11T13:03:40.527Z,5.30
2024-02-11T13:06:08.567Z,4.37
2024-02-11T13:08:36.775Z,5.55
2024-02-11T13:11:06.611Z,5.22
2024-02-11T13:13:35.775Z,5.03
2024-02-11T13:16:07.225Z,6.05
2024-02-11T13:18:35.674Z,5.80
2024-02-11T13:21:05.071Z,4.78
2024-02-11T13:23:33.306Z,5.28
2024-02-11T13:26:01.542Z,4.30
2024-02-11T13:28:29.116Z,4.82
2024-02-11T13:31:07.104Z,4.03
2024-02-11T13:33:42.076Z,3.97
2024-02-11T13:36:11.847Z,4.28
2024-02-11T13:38:39.564Z,3.00
2024-02-11T13:41:08.676Z,3.35
2024-02-11T13:43:36.615Z,2.72
2024-02-11T13:46:04.800Z,2.25
2024-02-11T13:48:32.525Z,2.85
2024-02-11T13:51:00.679Z,3.17
2024-02-11T13:53:28.259Z,3.08
2024-02-11T13:55:55.771Z,3.03
2024-02-11T13:58:23.569Z,2.85
2024-02-11T14:00:51.656Z,2.70
2024-02-11T14:03:19.576Z,2.70
2024-02-11T14:05:47.376Z,2.47
2024-02-11T14:08:17.092Z,2.97
2024-02-11T14:10:47.159Z,2.70
2024-02-11T14:13:15.356Z,3.25
2024-02-11T14:15:42.865Z,2.65
2024-02-11T14:18:12.623Z,2.97
2024-02-11T14:20:40.476Z,3.10
2024-02-11T14:23:07.973Z,3.22
2024-02-11T14:25:35.833Z,2.90
2024-02-11T14:28:03.317Z,3.12
2024-02-11T14:30:30.762Z,3.17
2024-02-11T14:32:58.559Z,3.80
2024-02-11T14:35:26.530Z,2.97
2024-02-11T14:37:54.275Z,2.95
2024-02-11T14:40:23.157Z,3.67
2024-02-11T14:42:51.833Z,3.30
2024-02-11T14:45:19.335Z,3.20
2024-02-11T14:47:48.308Z,3.58
2024-02-11T14:50:15.941Z,2.83
2024-02-11T14:52:44.407Z,3.72
2024-02-11T14:55:12.225Z,3.25
2024-02-11T14:57:39.955Z,3.80
2024-02-11T15:00:12.200Z,3.40
2024-02-11T15:02:40.308Z,4.05
2024-02-11T15:05:10.258Z,4.43
2024-02-11T15:07:38.263Z,3.30
2024-02-11T15:10:06.666Z,3.80
2024-02-11T15:12:34.416Z,3.50
2024-02-11T15:15:02.068Z,3.80
2024-02-11T15:17:30.686Z,4.00
2024-02-11T15:19:59.455Z,4.80
2024-02-11T15:22:27.055Z,4.28
2024-02-11T15:24:55.284Z,4.25
2024-02-11T15:27:22.837Z,3.95
2024-02-11T15:29:50.246Z,4.37
2024-02-11T15:32:17.954Z,5.05
2024-02-11T15:34:45.590Z,4.60
2024-02-11T15:37:13.138Z,5.45
2024-02-11T15:39:41.151Z,4.93
2024-02-11T15:42:10.083Z,4.68
2024-02-11T15:44:40.557Z,4.75
2024-02-11T15:47:08.515Z,4.97
2024-02-11T15:49:37.625Z,5.72
2024-02-11T15:52:07.585Z,7.75
2024-02-11T15:54:35.743Z,5.93
2024-02-11T15:57:03.196Z,5.40
2024-02-11T15:59:30.669Z,6.37
2024-02-11T16:01:58.414Z,5.97
2024-02-11T16:04:26.433Z,5.93
2024-02-11T16:06:55.206Z,5.30
2024-02-11T16:09:22.568Z,5.05
2024-02-11T16:11:50.790Z,4.93
2024-02-11T16:14:18.704Z,4.50
2024-02-11T16:16:46.477Z,5.57
2024-02-11T16:19:14.270Z,4.80
2024-02-11T16:21:41.682Z,5.30
2024-02-11T16:24:14.977Z,4.87
2024-02-11T16:26:44.682Z,5.40
2024-02-11T16:29:13.056Z,5.30
2024-02-11T16:31:43.352Z,5.60
2024-02-11T16:34:14.127Z,5.37
2024-02-11T16:36:42.400Z,6.07
2024-02-11T16:39:09.973Z,6.05
2024-02-11T16:41:41.417Z,5.70
2024-02-11T16:44:09.069Z,5.70
2024-02-11T16:46:36.587Z,6.70
2024-02-11T16:49:05.683Z,5.50
2024-02-11T16:51:33.706Z,6.25
2024-02-11T16:54:01.562Z,6.30
2024-02-11T16:56:29.358Z,6.53
2024-02-11T16:58:57.622Z,6.68
2024-02-11T17:01:25.788Z,6.28
2024-02-11T17:03:53.550Z,6.55
2024-02-11T17:06:21.173Z,6.82
2024-02-11T17:08:48.758Z,6.20
2024-02-11T17:11:16.533Z,7.72
2024-02-11T17:13:45.743Z,6.30
2024-02-11T17:16:13.372Z,7.90
2024-02-11T17:18:41.276Z,6.90
2024-02-11T17:21:13.604Z,7.37
2024-02-11T17:23:42.264Z,7.28
2024-02-11T17:26:09.980Z,7.12
2024-02-11T17:28:37.777Z,7.85
2024-02-11T17:31:05.868Z,7.22
2024-02-11T17:33:33.840Z,6.78
2024-02-11T17:36:01.797Z,7.50
2024-02-11T17:38:30.650Z,8.07
2024-02-11T17:40:59.634Z,6.72
2024-02-11T17:43:27.278Z,7.85
2024-02-11T17:45:55.602Z,6.72
2024-02-11T17:48:24.075Z,7.80
2024-02-11T17:50:56.428Z,7.60
2024-02-11T17:53:28.067Z,7.37
2024-02-11T17:56:02.100Z,7.35
2024-02-11T17:58:30.289Z,6.43
2024-02-11T18:00:59.113Z,6.85
2024-02-11T18:03:33.811Z,9.25
2024-02-11T18:06:05.822Z,8.07
2024-02-11T18:08:34.414Z,9.20
2024-02-11T18:11:02.082Z,9.90
2024-02-11T18:13:30.211Z,9.20
2024-02-11T18:15:57.920Z,8.93
2024-02-11T18:18:26.251Z,9.27
2024-02-11T18:20:53.731Z,7.80
2024-02-11T18:23:21.481Z,9.00
2024-02-11T18:26:02.298Z,10.15
2024-02-11T18:28:38.116Z,10.85
2024-02-11T18:31:07.906Z,8.63
2024-02-11T18:33:36.008Z,7.53
2024-02-11T18:36:03.615Z,6.43
2024-02-11T18:38:35.361Z,5.25
2024-02-11T18:41:05.841Z,4.87
2024-02-11T18:43:36.757Z,4.82
2024-02-11T18:46:04.716Z,4.55
2024-02-11T18:48:33.396Z,4.55
2024-02-11T18:51:07.769Z,4.60
2024-02-11T18:53:36.862Z,4.25
2024-02-11T18:56:05.534Z,4.00
2024-02-11T18:58:34.055Z,3.62
2024-02-11T19:01:04.446Z,3.50
2024-02-11T19:03:32.231Z,3.67
2024-02-11T19:05:59.959Z,3.53
2024-02-11T19:08:28.487Z,3.20
2024-02-11T19:10:56.462Z,3.75
2024-02-11T19:13:27.658Z,3.67
2024-02-11T19:15:57.216Z,3.58
2024-02-11T19:18:25.696Z,3.10
2024-02-11T19:20:53.791Z,3.95
2024-02-11T19:23:24.697Z,3.87
2024-02-11T19:25:56.638Z,3.42
2024-02-11T19:28:25.149Z,3.58
2024-02-11T19:30:53.937Z,3.58
2024-02-11T19:33:41.844Z,4.22
2024-02-11T19:36:09.702Z,3.42
2024-02-11T19:38:37.713Z,4.25
2024-02-11T19:41:06.353Z,4.18
2024-02-11T19:43:34.672Z,3.70
2024-02-11T19:46:03.538Z,5.07
2024-02-11T19:48:33.609Z,3.90
2024-02-11T19:51:01.457Z,3.83
2024-02-11T19:53:38.090Z,3.40
2024-02-11T19:56:09.268Z,4.03
2024-02-11T19:58:42.826Z,3.45
2024-02-11T20:01:11.029Z,3.12
2024-02-11T20:03:38.847Z,3.55
2024-02-11T20:06:08.009Z,3.92
2024-02-11T20:08:35.746Z,3.50
2024-02-11T20:11:08.490Z,4.37
2024-02-11T20:13:37.189Z,3.80
2024-02-11T20:16:05.406Z,3.60
2024-02-11T20:18:33.108Z,3.62
2024-02-11T20:21:00.616Z,3.40
2024-02-11T20:23:29.316Z,3.40
2024-02-11T20:25:56.793Z,2.87
2024-02-11T20:28:26.755Z,3.10
2024-02-11T20:30:56.397Z,3.67
2024-02-11T20:33:25.295Z,3.20
2024-02-11T20:35:52.786Z,3.50
2024-02-11T20:38:23.335Z,2.85
2024-02-11T20:40:51.154Z,2.85
2024-02-11T20:43:18.591Z,2.90
2024-02-11T20:45:47.201Z,3.47
2024-02-11T20:48:14.966Z,3.45
2024-02-11T20:50:42.484Z,3.15
2024-02-11T20:53:10.301Z,3.20
2024-02-11T20:55:38.679Z,2.70
2024-02-11T20:58:06.648Z,2.55
2024-02-11T21:00:37.743Z,2.70
2024-02-11T21:03:09.373Z,2.70
2024-02-11T21:05:37.512Z,2.92
2024-02-11T21:08:07.664Z,3.05
2024-02-11T21:10:35.104Z,3.60
2024-02-11T21:13:18.381Z,3.10
2024-02-11T21:15:45.954Z,3.15
2024-02-11T21:18:13.881Z,3.08
2024-02-11T21:20:43.479Z,3.45
2024-02-11T21:23:12.218Z,3.70
2024-02-11T21:25:39.984Z,3.30
2024-02-11T21:28:07.324Z,4.03
2024-02-11T21:30:34.886Z,3.47
2024-02-11T21:33:04.541Z,4.57
2024-02-11T21:35:32.037Z,3.67
2024-02-11T21:37:59.744Z,3.67
2024-02-11T21:40:27.721Z,4.15
2024-02-11T21:42:55.967Z,3.85
2024-02-11T21:45:23.420Z,3.58
2024-02-11T21:47:52.697Z,3.75
2024-02-11T21:50:20.629Z,4.22
2024-02-11T21:52:48.379Z,3.30
2024-02-11T21:55:19.474Z,3.70
2024-02-11T21:57:47.082Z,4.18
2024-02-11T22:00:15.458Z,4.20
2024-02-11T22:02:56.673Z,3.67
2024-02-11T22:05:24.514Z,4.35
2024-02-11T22:07:52.283Z,3.70
2024-02-11T22:10:20.269Z,3.83
2024-02-11T22:12:51.811Z,3.55
2024-02-11T22:15:19.545Z,4.00
2024-02-11T22:17:48.587Z,4.03
2024-02-11T22:20:16.798Z,4.90
2024-02-11T22:22:44.708Z,4.18
2024-02-11T22:25:12.302Z,3.90
2024-02-11T22:27:56.382Z,4.47
2024-02-11T22:30:24.144Z,4.90
2024-02-11T22:32:53.067Z,4.37
2024-02-11T22:35:20.658Z,4.62
2024-02-11T22:37:48.393Z,4.12
2024-02-11T22:40:16.299Z,4.55
2024-02-11T22:42:50.423Z,4.40
2024-02-11T22:45:18.262Z,4.72
2024-02-11T22:47:46.213Z,4.32
2024-02-11T22:50:15.427Z,4.82
2024-02-11T22:52:53.879Z,5.55
2024-02-11T22:55:23.206Z,4.93
2024-02-11T22:57:51.510Z,5.37
2024-02-11T23:00:37.650Z,5.78
2024-02-11T23:03:06.938Z,5.97
2024-02-11T23:05:38.882Z,5.80
2024-02-11T23:08:08.441Z,5.60
2024-02-11T23:10:37.579Z,5.90
2024-02-11T23:13:05.391Z,6.03
2024-02-11T23:15:33.757Z,5.80
2024-02-11T23:18:19.863Z,5.62
2024-02-11T23:20:47.680Z,6.10
2024-02-11T23:23:15.279Z,6.12
2024-02-11T23:25:42.797Z,7.30
2024-02-11T23:28:10.467Z,5.78
2024-02-11T23:30:40.247Z,5.70
2024-02-11T23:33:08.064Z,6.82
2024-02-11T23:35:40.131Z,6.05
2024-02-11T23:38:08.262Z,6.85
2024-02-11T23:40:36.368Z,7.00
2024-02-11T23:43:03.883Z,6.90
2024-02-11T23:45:31.780Z,6.50
2024-02-11T23:47:59.466Z,6.72
2024-02-11T23:50:27.733Z,6.22
2024-02-11T23:52:55.498Z,6.90
2024-02-11T23:55:23.296Z,6.62
2024-02-11T23:57:50.695Z,6.53
